createdAt,value
2023-03-13T00:01:20.433Z,6.68
2023-03-13T00:03:47.986Z,7.45
2023-03-13T00:06:16.341Z,6.53
2023-03-13T00:08:44.967Z,6.57
2023-03-13T00:11:14.102Z,7.15
2023-03-13T00:13:43.248Z,7.80
2023-03-13T00:16:13.171Z,7.93
2023-03-13T00:18:50.095Z,7.47
2023-03-13T00:21:19.038Z,8.43
2023-03-13T00:23:47.515Z,8.23
2023-03-13T00:26:17.979Z,7.45
2023-03-13T00:28:46.124Z,9.55
2023-03-13T00:31:22.128Z,7.72
2023-03-13T00:33:53.389Z,8.73
2023-03-13T00:36:24.087Z,8.23
2023-03-13T00:38:52.517Z,9.40
2023-03-13T00:41:29.146Z,8.57
2023-03-13T00:43:57.239Z,8.68
2023-03-13T00:46:27.971Z,8.30
2023-03-13T00:48:55.986Z,8.30
2023-03-13T00:51:26.700Z,8.30
2023-03-13T00:53:55.696Z,8.40
2023-03-13T00:56:23.606Z,6.22
2023-03-13T00:58:51.311Z,9.50
2023-03-13T01:01:21.699Z,7.38
2023-03-13T01:03:59.492Z,7.25
2023-03-13T01:06:29.216Z,7.38
2023-03-13T01:08:59.869Z,8.88
2023-03-13T01:11:29.882Z,7.82
2023-03-13T01:14:03.353Z,6.85
2023-03-13T01:16:32.566Z,9.73
2023-03-13T01:19:03.128Z,7.07
2023-03-13T01:21:31.390Z,6.60
2023-03-13T01:23:58.886Z,6.70
2023-03-13T01:26:27.417Z,8.70
2023-03-13T01:28:55.497Z,8.10
2023-03-13T01:31:29.078Z,7.05
2023-03-13T01:33:59.117Z,6.70
2023-03-13T01:36:28.282Z,9.85
2023-03-13T01:38:58.433Z,6.65
2023-03-13T01:41:29.141Z,5.55
2023-03-13T01:43:57.516Z,7.47
2023-03-13T01:46:30.500Z,6.53
2023-03-13T01:49:14.546Z,10.73
2023-03-13T01:52:10.669Z,8.10
2023-03-13T01:55:14.814Z,7.18
2023-03-13T01:57:50.592Z,10.00
2023-03-13T02:00:32.966Z,7.88
2023-03-13T02:03:08.738Z,5.88
2023-03-13T02:05:37.711Z,5.43
2023-03-13T02:08:10.853Z,4.88
2023-03-13T02:10:46.993Z,4.32
2023-03-13T02:13:17.519Z,3.78
2023-03-13T02:15:46.028Z,6.40
2023-03-13T02:18:14.917Z,6.13
2023-03-13T02:20:42.799Z,5.63
2023-03-13T02:23:26.083Z,4.10
2023-03-13T02:25:54.564Z,4.75
2023-03-13T02:28:35.524Z,3.40
2023-03-13T02:31:06.911Z,4.65
2023-03-13T02:33:41.183Z,5.85
2023-03-13T02:36:13.262Z,4.45
2023-03-13T02:38:57.473Z,5.30
2023-03-13T02:41:26.839Z,7.28
2023-03-13T02:43:55.768Z,6.70
2023-03-13T02:46:23.452Z,5.25
2023-03-13T02:48:56.744Z,5.68
2023-03-13T02:51:37.021Z,3.97
2023-03-13T02:54:10.641Z,3.80
2023-03-13T02:56:40.628Z,3.67
2023-03-13T02:59:09.623Z,3.72
2023-03-13T03:01:40.360Z,6.15
2023-03-13T03:04:07.983Z,4.60
2023-03-13T03:06:35.505Z,3.90
2023-03-13T03:09:05.460Z,3.65
2023-03-13T03:11:35.970Z,3.22
2023-03-13T03:14:08.748Z,4.15
2023-03-13T03:16:40.692Z,2.85
2023-03-13T03:19:10.988Z,4.28
2023-03-13T03:21:38.805Z,3.50
2023-03-13T03:24:07.035Z,3.67
2023-03-13T03:26:34.712Z,4.70
2023-03-13T03:29:04.934Z,3.03
2023-03-13T03:31:32.474Z,2.30
2023-03-13T03:34:00.420Z,2.47
2023-03-13T03:36:29.313Z,2.90
2023-03-13T03:38:56.864Z,2.38
2023-03-13T03:41:27.195Z,2.55
2023-03-13T03:43:55.638Z,2.50
2023-03-13T03:46:27.288Z,2.83
2023-03-13T03:48:57.040Z,2.65
2023-03-13T03:51:25.103Z,2.38
2023-03-13T03:53:52.531Z,2.58
2023-03-13T03:56:20.354Z,2.00
2023-03-13T03:58:52.940Z,2.53
2023-03-13T04:01:36.861Z,1.83
2023-03-13T04:04:05.508Z,2.22
2023-03-13T04:06:33.025Z,2.67
2023-03-13T04:09:01.447Z,2.60
2023-03-13T04:11:30.866Z,3.60
2023-03-13T04:13:58.707Z,3.38
2023-03-13T04:16:26.875Z,2.90
2023-03-13T04:18:55.842Z,2.42
2023-03-13T04:21:25.617Z,2.50
2023-03-13T04:23:59.313Z,2.58
2023-03-13T04:26:27.379Z,2.28
2023-03-13T04:28:56.561Z,2.30
2023-03-13T04:31:39.478Z,3.03
2023-03-13T04:34:27.276Z,2.60
2023-03-13T04:37:12.391Z,2.03
2023-03-13T04:39:39.867Z,2.40
2023-03-13T04:42:17.755Z,2.80
2023-03-13T04:45:13.150Z,2.08
2023-03-13T04:50:49.897Z,1.77
2023-03-13T04:53:28.603Z,1.75
2023-03-13T04:56:42.666Z,1.70
2023-03-13T04:59:28.914Z,1.60
2023-03-13T05:02:19.581Z,1.65
2023-03-13T05:04:52.138Z,1.40
2023-03-13T05:07:48.494Z,1.63
2023-03-13T05:10:36.475Z,1.23
2023-03-13T05:13:22.503Z,1.23
2023-03-13T05:15:56.505Z,1.15
2023-03-13T05:18:44.232Z,1.20
2023-03-13T05:21:34.974Z,0.80
2023-03-13T05:24:27.505Z,1.13
2023-03-13T05:27:27.417Z,0.77
2023-03-13T05:30:09.142Z,0.80
2023-03-13T05:33:04.738Z,0.80
2023-03-13T05:36:04.628Z,1.20
2023-03-13T05:38:41.866Z,1.20
2023-03-13T05:41:22.495Z,0.90
2023-03-13T05:44:10.157Z,1.20
2023-03-13T05:47:00.084Z,0.98
2023-03-13T05:49:59.726Z,1.20
2023-03-13T05:52:37.194Z,0.95
2023-03-13T05:55:07.827Z,1.05
2023-03-13T05:58:07.465Z,1.00
2023-03-13T06:01:12.719Z,0.90
2023-03-13T06:03:51.061Z,0.70
2023-03-13T06:06:19.292Z,0.80
2023-03-13T06:08:55.441Z,0.93
2023-03-13T06:11:26.158Z,1.05
2023-03-13T06:13:54.134Z,0.85
2023-03-13T06:16:27.601Z,0.90
2023-03-13T06:18:59.206Z,0.82
2023-03-13T06:21:26.695Z,1.00
2023-03-13T06:23:55.674Z,0.80
2023-03-13T06:26:24.851Z,1.25
2023-03-13T06:28:52.691Z,1.23
2023-03-13T06:31:20.239Z,1.45
2023-03-13T06:33:49.623Z,1.05
2023-03-13T06:36:17.833Z,0.90
2023-03-13T06:38:45.321Z,0.75
2023-03-13T06:41:12.966Z,0.70
2023-03-13T06:43:40.836Z,0.90
2023-03-13T06:46:14.808Z,0.80
2023-03-13T06:48:42.333Z,0.70
2023-03-13T06:51:14.280Z,0.82
2023-03-13T06:53:42.512Z,0.90
2023-03-13T06:56:10.492Z,3.58
2023-03-13T06:58:38.168Z,1.00
2023-03-13T07:01:10.538Z,0.98
2023-03-13T07:03:39.215Z,1.20
2023-03-13T07:06:07.232Z,1.10
2023-03-13T07:08:35.837Z,0.93
2023-03-13T07:11:10.796Z,0.90
2023-03-13T07:13:39.003Z,0.90
2023-03-13T07:16:12.541Z,1.05
2023-03-13T07:18:44.810Z,0.95
2023-03-13T07:21:12.903Z,0.90
2023-03-13T07:23:40.897Z,0.80
2023-03-13T07:26:12.418Z,0.82
2023-03-13T07:28:40.325Z,0.80
2023-03-13T07:31:16.565Z,0.85
2023-03-13T07:33:45.303Z,0.82
2023-03-13T07:36:15.346Z,0.90
2023-03-13T07:38:46.032Z,0.90
2023-03-13T07:41:13.829Z,1.48
2023-03-13T07:43:41.526Z,0.90
2023-03-13T07:46:12.180Z,1.00
2023-03-13T07:48:41.678Z,1.55
2023-03-13T07:51:16.543Z,3.00
2023-03-13T07:53:45.525Z,0.98
2023-03-13T07:56:15.004Z,1.30
2023-03-13T07:58:43.461Z,1.00
2023-03-13T08:01:12.544Z,1.20
2023-03-13T08:03:40.205Z,1.80
2023-03-13T08:06:12.829Z,1.45
2023-03-13T08:08:41.599Z,4.07
2023-03-13T08:11:25.026Z,1.30
2023-03-13T08:13:53.840Z,1.52
2023-03-13T08:16:23.775Z,1.42
2023-03-13T08:18:54.001Z,1.55
2023-03-13T08:21:33.402Z,1.80
2023-03-13T08:24:05.952Z,1.58
2023-03-13T08:26:36.322Z,1.30
2023-03-13T08:29:10.009Z,1.27
2023-03-13T08:31:43.716Z,1.10
2023-03-13T08:34:15.145Z,1.00
2023-03-13T08:36:42.740Z,0.80
2023-03-13T08:39:13.786Z,1.13
2023-03-13T08:41:41.538Z,0.85
2023-03-13T08:44:11.965Z,1.17
2023-03-13T08:46:40.282Z,1.95
2023-03-13T08:49:09.051Z,0.80
2023-03-13T08:51:37.240Z,1.20
2023-03-13T08:54:05.122Z,0.82
2023-03-13T08:56:32.988Z,8.27
2023-03-13T08:59:02.556Z,0.93
2023-03-13T09:01:32.888Z,1.10
2023-03-13T09:04:03.948Z,1.33
2023-03-13T09:06:33.862Z,1.23
2023-03-13T09:09:01.736Z,1.20
2023-03-13T09:11:29.704Z,1.00
2023-03-13T09:14:00.372Z,0.93
2023-03-13T09:16:30.148Z,0.93
2023-03-13T09:18:58.918Z,1.15
2023-03-13T09:21:32.197Z,1.02
2023-03-13T09:23:59.949Z,1.05
2023-03-13T09:26:28.717Z,1.50
2023-03-13T09:28:56.657Z,0.93
2023-03-13T09:31:27.807Z,1.20
2023-03-13T09:33:55.742Z,1.00
2023-03-13T09:36:24.156Z,3.05
2023-03-13T09:38:53.003Z,1.20
2023-03-13T09:41:38.778Z,1.00
2023-03-13T09:44:20.453Z,1.20
2023-03-13T09:46:53.968Z,1.05
2023-03-13T09:49:30.786Z,0.93
2023-03-13T09:52:26.079Z,1.10
2023-03-13T09:55:03.133Z,0.90
2023-03-13T09:58:02.049Z,0.90
2023-03-13T10:00:31.222Z,0.63
2023-03-13T10:03:20.931Z,1.08
2023-03-13T10:05:52.327Z,3.97
2023-03-13T10:08:24.340Z,1.05
2023-03-13T10:10:54.811Z,0.73
2023-03-13T10:14:01.741Z,1.17
2023-03-13T10:16:32.697Z,1.20
2023-03-13T10:19:11.127Z,0.98
2023-03-13T10:21:39.843Z,0.90
2023-03-13T10:24:32.693Z,1.00
2023-03-13T10:27:00.288Z,0.95
2023-03-13T10:29:31.619Z,0.55
2023-03-13T10:32:04.340Z,0.90
2023-03-13T10:34:59.811Z,0.60
2023-03-13T10:37:28.829Z,0.80
2023-03-13T10:40:11.758Z,0.60
2023-03-13T10:42:45.059Z,0.85
2023-03-13T10:45:24.964Z,0.77
2023-03-13T10:48:00.254Z,0.80
2023-03-13T10:50:32.573Z,0.70
2023-03-13T10:53:23.224Z,0.68
2023-03-13T10:55:54.472Z,0.95
2023-03-13T10:58:34.409Z,0.75
2023-03-13T11:01:24.499Z,0.43
2023-03-13T11:03:54.670Z,0.60
2023-03-13T11:06:28.206Z,0.63
2023-03-13T11:08:59.713Z,0.60
2023-03-13T11:11:30.977Z,1.00
2023-03-13T11:14:10.021Z,0.80
2023-03-13T11:16:46.764Z,1.15
2023-03-13T11:19:14.295Z,0.77
2023-03-13T11:21:41.689Z,1.00
2023-03-13T11:24:31.108Z,1.40
2023-03-13T11:27:09.020Z,0.90
2023-03-13T11:30:13.516Z,0.85
2023-03-13T11:32:53.349Z,0.80
2023-03-13T11:35:40.949Z,1.00
2023-03-13T11:38:34.620Z,1.10
2023-03-13T11:41:43.034Z,1.00
2023-03-13T11:44:31.713Z,1.45
2023-03-13T11:47:25.285Z,1.08
2023-03-13T11:50:01.553Z,1.27
2023-03-13T11:52:58.415Z,1.30
2023-03-13T11:55:32.868Z,1.60
2023-03-13T11:58:14.247Z,1.63
2023-03-13T12:01:07.852Z,1.42
2023-03-13T12:03:54.430Z,1.88
2023-03-13T12:06:35.125Z,1.80
2023-03-13T12:09:20.427Z,1.45
2023-03-13T12:12:16.103Z,1.85
2023-03-13T12:15:11.854Z,2.08
2023-03-13T12:17:45.603Z,1.83
2023-03-13T12:20:22.280Z,1.60
2023-03-13T12:22:57.664Z,1.58
2023-03-13T12:25:49.453Z,1.42
2023-03-13T12:28:45.636Z,1.70
2023-03-13T12:31:31.089Z,2.50
2023-03-13T12:34:22.630Z,1.73
2023-03-13T12:37:06.825Z,1.88
2023-03-13T12:39:47.919Z,1.83
2023-03-13T12:42:33.267Z,1.73
2023-03-13T12:45:00.911Z,2.10
2023-03-13T12:47:46.882Z,1.73
2023-03-13T12:50:29.416Z,2.03
2023-03-13T12:53:24.420Z,1.60
2023-03-13T12:56:35.308Z,1.65
2023-03-13T12:59:16.369Z,2.10
2023-03-13T13:01:47.771Z,1.95
2023-03-13T13:04:23.773Z,1.60
2023-03-13T13:07:18.700Z,1.25
2023-03-13T13:10:11.215Z,1.55
2023-03-13T13:12:44.358Z,1.58
2023-03-13T13:15:25.734Z,1.52
2023-03-13T13:18:31.503Z,2.10
2023-03-13T13:21:20.227Z,1.95
2023-03-13T13:23:50.173Z,2.40
2023-03-13T13:26:27.006Z,2.75
2023-03-13T13:29:01.709Z,2.05
2023-03-13T13:31:52.322Z,2.47
2023-03-13T13:34:56.005Z,2.88
2023-03-13T13:37:23.596Z,2.35
2023-03-13T13:39:52.801Z,2.13
2023-03-13T13:42:41.874Z,2.65
2023-03-13T13:45:15.119Z,2.60
2023-03-13T13:47:45.863Z,2.28
2023-03-13T13:50:27.637Z,2.35
2023-03-13T13:53:29.374Z,2.40
2023-03-13T13:55:58.792Z,2.33
2023-03-13T13:58:30.358Z,2.95
2023-03-13T14:01:04.112Z,3.35
2023-03-13T14:03:33.245Z,3.92
2023-03-13T14:06:25.936Z,3.67
2023-03-13T14:08:57.639Z,2.95
2023-03-13T14:11:38.347Z,4.15
2023-03-13T14:14:19.214Z,3.45
2023-03-13T14:16:47.924Z,4.47
2023-03-13T14:19:30.699Z,3.42
2023-03-13T14:22:08.023Z,3.63
2023-03-13T14:24:36.222Z,3.15
2023-03-13T14:27:16.734Z,2.85
2023-03-13T14:30:01.001Z,3.38
2023-03-13T14:32:28.589Z,4.35
2023-03-13T14:34:56.108Z,4.30
2023-03-13T14:37:44.868Z,3.88
2023-03-13T14:40:20.254Z,3.65
2023-03-13T14:42:56.628Z,3.38
2023-03-13T14:45:30.012Z,3.58
2023-03-13T14:48:28.452Z,4.03
2023-03-13T14:51:16.546Z,4.00
2023-03-13T14:54:03.361Z,4.32
2023-03-13T14:59:18.180Z,4.63
2023-03-13T15:01:46.711Z,3.55
2023-03-13T15:04:14.266Z,4.00
2023-03-13T15:06:41.880Z,3.97
2023-03-13T15:09:21.997Z,3.38
2023-03-13T15:12:01.144Z,3.90
2023-03-13T15:14:39.085Z,3.58
2023-03-13T15:17:15.075Z,3.50
2023-03-13T15:19:43.407Z,4.20
2023-03-13T15:22:15.703Z,4.55
2023-03-13T15:24:56.159Z,5.22
2023-03-13T15:27:32.048Z,3.70
2023-03-13T15:29:59.512Z,3.55
2023-03-13T15:32:33.201Z,3.95
2023-03-13T15:35:02.123Z,3.83
2023-03-13T15:37:30.785Z,4.03
2023-03-13T15:39:58.938Z,4.10
2023-03-13T15:42:26.565Z,4.00
2023-03-13T15:44:54.190Z,3.78
2023-03-13T15:47:22.436Z,4.55
2023-03-13T15:49:49.913Z,5.63
2023-03-13T15:52:20.182Z,4.68
2023-03-13T15:54:47.868Z,4.68
2023-03-13T15:57:18.207Z,5.35
2023-03-13T15:59:45.727Z,5.10
2023-03-13T16:02:18.691Z,5.15
2023-03-13T16:04:46.672Z,4.55
2023-03-13T16:07:16.404Z,4.50
2023-03-13T16:09:44.479Z,3.83
2023-03-13T16:12:12.682Z,3.50
2023-03-13T16:14:40.928Z,3.50
2023-03-13T16:17:17.738Z,3.05
2023-03-13T16:19:46.622Z,3.55
2023-03-13T16:22:14.842Z,3.08
2023-03-13T16:24:42.496Z,3.42
2023-03-13T16:27:18.303Z,5.03
2023-03-13T16:32:16.239Z,3.15
2023-03-13T16:34:43.898Z,3.33
2023-03-13T16:37:13.429Z,3.20
2023-03-13T16:39:41.564Z,3.88
2023-03-13T16:42:09.464Z,3.78
2023-03-13T16:44:37.035Z,5.90
2023-03-13T16:47:23.950Z,4.15
2023-03-13T16:49:51.533Z,4.25
2023-03-13T16:52:19.114Z,3.70
2023-03-13T16:54:46.802Z,3.63
2023-03-13T16:57:22.784Z,3.42
2023-03-13T16:59:51.065Z,3.03
2023-03-13T17:02:20.860Z,3.50
2023-03-13T17:04:49.081Z,2.83
2023-03-13T17:07:18.995Z,2.85
2023-03-13T17:09:46.648Z,3.05
2023-03-13T17:12:14.215Z,2.85
2023-03-13T17:14:41.867Z,3.00
2023-03-13T17:17:21.219Z,4.70
2023-03-13T17:19:49.222Z,4.22
2023-03-13T17:22:18.076Z,3.70
2023-03-13T17:24:45.644Z,3.63
2023-03-13T17:27:14.793Z,3.47
2023-03-13T17:29:43.261Z,3.35
2023-03-13T17:32:12.887Z,3.58
2023-03-13T17:34:41.355Z,2.80
2023-03-13T17:37:15.781Z,2.65
2023-03-13T17:39:44.197Z,4.18
2023-03-13T17:42:11.917Z,2.60
2023-03-13T17:44:41.120Z,2.72
2023-03-13T17:47:16.901Z,3.17
2023-03-13T17:52:16.604Z,3.15
2023-03-13T17:54:45.741Z,2.58
2023-03-13T17:57:19.537Z,2.67
2023-03-13T17:59:49.368Z,3.53
2023-03-13T18:02:18.034Z,5.07
2023-03-13T18:04:45.831Z,4.32
2023-03-13T18:07:20.122Z,3.65
2023-03-13T18:09:47.908Z,3.60
2023-03-13T18:12:16.413Z,4.10
2023-03-13T18:14:44.223Z,3.45
2023-03-13T18:17:23.024Z,3.92
2023-03-13T18:19:52.044Z,4.85
2023-03-13T18:22:24.632Z,3.63
2023-03-13T18:24:52.384Z,4.25
2023-03-13T18:27:21.823Z,3.53
2023-03-13T18:29:49.566Z,4.40
2023-03-13T18:32:19.222Z,3.53
2023-03-13T18:34:46.786Z,4.35
2023-03-13T18:37:31.124Z,3.70
2023-03-13T18:40:00.237Z,3.80
2023-03-13T18:42:27.748Z,4.85
2023-03-13T18:44:55.418Z,4.32
2023-03-13T18:47:28.583Z,4.05
2023-03-13T18:49:56.200Z,4.85
2023-03-13T18:52:23.774Z,5.82
2023-03-13T18:54:51.476Z,4.10
2023-03-13T18:57:20.323Z,4.00
2023-03-13T18:59:47.871Z,4.20
2023-03-13T19:02:17.287Z,4.57
2023-03-13T19:04:47.200Z,4.45
2023-03-13T19:07:18.793Z,5.07
2023-03-13T19:09:47.287Z,4.47
2023-03-13T19:12:16.116Z,4.70
2023-03-13T19:14:44.117Z,5.68
2023-03-13T19:17:23.198Z,3.33
2023-03-13T19:19:50.786Z,5.35
2023-03-13T19:22:18.238Z,5.65
2023-03-13T19:24:45.820Z,5.75
2023-03-13T19:27:14.633Z,5.68
2023-03-13T19:29:42.390Z,6.75
2023-03-13T19:32:15.493Z,5.32
2023-03-13T19:34:43.722Z,6.55
2023-03-13T19:37:15.854Z,4.38
2023-03-13T19:39:43.557Z,5.43
2023-03-13T19:42:11.103Z,5.03
2023-03-13T19:44:40.440Z,5.70
2023-03-13T19:47:14.650Z,4.53
2023-03-13T19:49:42.218Z,4.43
2023-03-13T19:52:09.645Z,3.60
2023-03-13T19:54:37.140Z,4.00
2023-03-13T19:57:04.656Z,3.83
2023-03-13T19:59:35.200Z,3.25
2023-03-13T20:02:04.414Z,3.60
2023-03-13T20:04:33.140Z,3.72
2023-03-13T20:07:02.351Z,3.55
2023-03-13T20:09:35.452Z,2.78
2023-03-13T20:12:03.185Z,3.92
2023-03-13T20:14:30.614Z,2.97
2023-03-13T20:16:58.132Z,2.70
2023-03-13T20:19:29.157Z,2.78
2023-03-13T20:22:03.510Z,2.92
2023-03-13T20:24:34.087Z,3.00
2023-03-13T20:27:02.701Z,2.63
2023-03-13T20:29:30.514Z,3.40
2023-03-13T20:32:01.669Z,2.92
2023-03-13T20:34:29.174Z,2.92
2023-03-13T20:36:57.341Z,3.15
2023-03-13T20:39:24.859Z,2.63
2023-03-13T20:41:54.517Z,3.17
2023-03-13T20:44:22.991Z,2.65
2023-03-13T20:46:51.167Z,2.88
2023-03-13T20:49:18.675Z,2.58
2023-03-13T20:51:46.332Z,2.95
2023-03-13T20:54:13.778Z,2.40
2023-03-13T20:56:41.652Z,2.65
2023-03-13T20:59:09.110Z,2.67
2023-03-13T21:01:36.769Z,2.88
2023-03-13T21:04:04.386Z,2.92
2023-03-13T21:06:31.866Z,2.58
2023-03-13T21:08:59.605Z,3.03
2023-03-13T21:11:27.084Z,2.10
2023-03-13T21:13:54.609Z,2.40
2023-03-13T21:16:22.206Z,2.60
2023-03-13T21:18:49.689Z,2.15
2023-03-13T21:21:19.672Z,2.13
2023-03-13T21:23:47.533Z,2.25
2023-03-13T21:26:15.900Z,2.38
2023-03-13T21:28:43.810Z,2.53
2023-03-13T21:31:16.894Z,2.85
2023-03-13T21:33:45.893Z,2.10
2023-03-13T21:36:15.482Z,2.83
2023-03-13T21:38:43.429Z,2.40
2023-03-13T21:41:16.351Z,2.30
2023-03-13T21:43:44.771Z,1.98
2023-03-13T21:46:15.447Z,2.10
2023-03-13T21:51:13.340Z,2.47
2023-03-13T21:53:44.651Z,2.35
2023-03-13T21:56:15.517Z,1.65
2023-03-13T21:58:45.502Z,2.67
2023-03-13T22:01:13.901Z,1.45
2023-03-13T22:03:41.471Z,1.58
2023-03-13T22:06:17.206Z,1.42
2023-03-13T22:08:45.263Z,2.28
2023-03-13T22:11:12.733Z,1.52
2023-03-13T22:13:40.488Z,2.53
2023-03-13T22:16:10.445Z,2.00
2023-03-13T22:18:39.849Z,2.30
2023-03-13T22:21:07.367Z,1.65
2023-03-13T22:23:34.985Z,1.40
2023-03-13T22:26:03.408Z,1.65
2023-03-13T22:28:31.226Z,2.22
2023-03-13T22:31:02.742Z,1.85
2023-03-13T22:33:30.448Z,1.48
2023-03-13T22:35:58.368Z,2.03
2023-03-13T22:38:25.979Z,2.03
2023-03-13T22:41:01.899Z,1.83
2023-03-13T22:43:30.436Z,2.70
2023-03-13T22:45:58.746Z,1.88
2023-03-13T22:48:26.819Z,1.70
2023-03-13T22:51:11.681Z,1.60
2023-03-13T22:53:40.758Z,1.80
2023-03-13T22:56:12.956Z,1.77
2023-03-13T22:58:41.756Z,1.95
2023-03-13T23:01:12.538Z,2.33
2023-03-13T23:03:40.225Z,1.92
2023-03-13T23:06:09.780Z,1.92
2023-03-13T23:08:37.229Z,2.35
2023-03-13T23:11:05.467Z,1.95
2023-03-13T23:13:33.642Z,3.35
2023-03-13T23:16:01.296Z,1.45
2023-03-13T23:18:28.845Z,2.25
2023-03-13T23:20:56.276Z,2.08
2023-03-13T23:23:24.182Z,2.67
2023-03-13T23:25:51.697Z,1.98
2023-03-13T23:28:19.228Z,1.90
2023-03-13T23:30:46.852Z,1.75
2023-03-13T23:33:14.312Z,2.00
2023-03-13T23:35:44.013Z,1.20
2023-03-13T23:38:12.814Z,2.22
2023-03-13T23:40:40.337Z,1.85
2023-03-13T23:43:07.772Z,1.60
2023-03-13T23:45:36.534Z,1.60
2023-03-13T23:48:04.385Z,1.40
2023-03-13T23:50:32.016Z,2.08
2023-03-13T23:52:59.626Z,2.05
2023-03-13T23:55:27.132Z,1.50
2023-03-13T23:57:54.662Z,1.30
